< < Back
Terminal Aerodrome Forecast


Current Version              Previous Versions:   1  2  3  4  5  6  7  8  9  

Terminal Aerodrome Forecast

289
FTUS44 KMOB 270500
TAFPNS
TAF
KPNS 270533Z 2706/2806 VRB03KT P6SM SCT070 BKN250
     FM271800 12008KT P6SM FEW050=

Latest METAR

370
SAUS70 KWBC 280300 RRB
MTRPNS
METAR KPNS 280253Z 25006KT 10SM CLR 27/21 A3000 RMK AO2 SLP160 T02720211
53009


USA.gov is the U.S. government's official web portal to all federal, state and local government web resources and services.